sensor_id;sensor_type;location;lat;lon;timestamp;temperature;humidity
54260;DHT22;40172;53.022;7.012;2023-08-20T00:01:14;15.30;99.90
54260;DHT22;40172;53.022;7.012;2023-08-20T00:03:42;15.30;99.90
54260;DHT22;40172;53.022;7.012;2023-08-20T00:06:09;15.20;99.90
54260;DHT22;40172;53.022;7.012;2023-08-20T00:08:34;15.20;99.90
54260;DHT22;40172;53.022;7.012;2023-08-20T00:11:01;15.20;99.90
54260;DHT22;40172;53.022;7.012;2023-08-20T00:13:27;15.20;99.90
54260;DHT22;40172;53.022;7.012;2023-08-20T00:15:53;15.20;99.90
54260;DHT22;40172;53.022;7.012;2023-08-20T00:18:19;15.20;99.90
54260;DHT22;40172;53.022;7.012;2023-08-20T00:20:45;15.10;99.90
54260;DHT22;40172;53.022;7.012;2023-08-20T00:23:11;15.10;99.90
54260;DHT22;40172;53.022;7.012;2023-08-20T00:25:37;15.10;99.90
54260;DHT22;40172;53.022;7.012;2023-08-20T00:28:03;15.00;99.90
54260;DHT22;40172;53.022;7.012;2023-08-20T00:30:29;15.00;99.90
54260;DHT22;40172;53.022;7.012;2023-08-20T00:32:54;14.90;99.90
54260;DHT22;40172;53.022;7.012;2023-08-20T00:35:21;14.80;99.90
54260;DHT22;40172;53.022;7.012;2023-08-20T00:37:47;14.80;99.90
54260;DHT22;40172;53.022;7.012;2023-08-20T00:40:13;14.80;99.90
54260;DHT22;40172;53.022;7.012;2023-08-20T00:42:38;14.80;99.90
54260;DHT22;40172;53.022;7.012;2023-08-20T00:45:04;14.70;99.90
54260;DHT22;40172;53.022;7.012;2023-08-20T00:47:31;14.80;99.90
54260;DHT22;40172;53.022;7.012;2023-08-20T00:49:57;14.70;99.90
54260;DHT22;40172;53.022;7.012;2023-08-20T00:52:22;14.70;99.90
54260;DHT22;40172;53.022;7.012;2023-08-20T00:54:49;14.70;99.90
54260;DHT22;40172;53.022;7.012;2023-08-20T00:57:17;14.60;99.90
54260;DHT22;40172;53.022;7.012;2023-08-20T00:59:44;14.60;99.90
54260;DHT22;40172;53.022;7.012;2023-08-20T01:02:12;14.60;99.90
54260;DHT22;40172;53.022;7.012;2023-08-20T01:04:38;14.60;99.90
54260;DHT22;40172;53.022;7.012;2023-08-20T01:07:14;14.60;99.90
54260;DHT22;40172;53.022;7.012;2023-08-20T01:10:09;14.60;99.90
54260;DHT22;40172;53.022;7.012;2023-08-20T01:12:37;14.60;99.90
54260;DHT22;40172;53.022;7.012;2023-08-20T01:15:04;14.60;99.90
54260;DHT22;40172;53.022;7.012;2023-08-20T01:17:30;14.60;99.90
54260;DHT22;40172;53.022;7.012;2023-08-20T01:19:56;14.60;99.90
54260;DHT22;40172;53.022;7.012;2023-08-20T01:25:42;14.50;99.90
54260;DHT22;40172;53.022;7.012;2023-08-20T01:28:27;14.40;99.90
54260;DHT22;40172;53.022;7.012;2023-08-20T01:30:55;14.40;99.90
54260;DHT22;40172;53.022;7.012;2023-08-20T01:33:22;14.30;99.90
54260;DHT22;40172;53.022;7.012;2023-08-20T01:35:50;14.30;99.90
54260;DHT22;40172;53.022;7.012;2023-08-20T01:38:16;14.30;99.90
54260;DHT22;40172;53.022;7.012;2023-08-20T01:40:41;14.30;99.90
54260;DHT22;40172;53.022;7.012;2023-08-20T01:43:07;14.20;99.90
54260;DHT22;40172;53.022;7.012;2023-08-20T01:45:32;14.20;99.90
54260;DHT22;40172;53.022;7.012;2023-08-20T01:47:58;14.20;99.90
54260;DHT22;40172;53.022;7.012;2023-08-20T01:50:23;14.10;99.90
54260;DHT22;40172;53.022;7.012;2023-08-20T01:52:49;15.00;99.90
54260;DHT22;40172;53.022;7.012;2023-08-20T01:55:15;14.20;99.90
54260;DHT22;40172;53.022;7.012;2023-08-20T01:57:40;14.20;99.90
54260;DHT22;40172;53.022;7.012;2023-08-20T02:00:06;14.20;99.90
54260;DHT22;40172;53.022;7.012;2023-08-20T02:02:33;14.20;99.90
54260;DHT22;40172;53.022;7.012;2023-08-20T02:04:59;14.20;99.90
54260;DHT22;40172;53.022;7.012;2023-08-20T02:07:25;14.10;99.90
54260;DHT22;40172;53.022;7.012;2023-08-20T02:09:51;14.10;99.90
54260;DHT22;40172;53.022;7.012;2023-08-20T02:12:17;14.10;99.90
54260;DHT22;40172;53.022;7.012;2023-08-20T02:14:43;14.10;99.90
54260;DHT22;40172;53.022;7.012;2023-08-20T02:17:09;14.10;99.90
54260;DHT22;40172;53.022;7.012;2023-08-20T02:19:34;14.00;99.90
54260;DHT22;40172;53.022;7.012;2023-08-20T02:22:00;14.00;99.90
54260;DHT22;40172;53.022;7.012;2023-08-20T02:24:25;13.90;99.90
54260;DHT22;40172;53.022;7.012;2023-08-20T02:26:51;13.90;99.90
54260;DHT22;40172;53.022;7.012;2023-08-20T02:29:17;13.80;99.90
54260;DHT22;40172;53.022;7.012;2023-08-20T02:31:43;14.10;99.90
54260;DHT22;40172;53.022;7.012;2023-08-20T02:34:08;13.70;99.90
54260;DHT22;40172;53.022;7.012;2023-08-20T02:36:34;13.60;99.90
54260;DHT22;40172;53.022;7.012;2023-08-20T02:38:59;13.50;99.90
54260;DHT22;40172;53.022;7.012;2023-08-20T02:41:25;13.50;99.90
54260;DHT22;40172;53.022;7.012;2023-08-20T02:43:50;13.40;99.90
54260;DHT22;40172;53.022;7.012;2023-08-20T02:46:16;13.40;99.90
54260;DHT22;40172;53.022;7.012;2023-08-20T02:48:42;13.30;99.90
54260;DHT22;40172;53.022;7.012;2023-08-20T02:51:07;13.30;99.90
54260;DHT22;40172;53.022;7.012;2023-08-20T02:53:33;13.30;99.90
54260;DHT22;40172;53.022;7.012;2023-08-20T02:55:59;13.30;99.90
54260;DHT22;40172;53.022;7.012;2023-08-20T02:58:24;13.40;99.90
54260;DHT22;40172;53.022;7.012;2023-08-20T03:00:50;13.50;99.90
54260;DHT22;40172;53.022;7.012;2023-08-20T03:03:16;13.50;99.90
54260;DHT22;40172;53.022;7.012;2023-08-20T03:05:41;13.60;99.90
54260;DHT22;40172;53.022;7.012;2023-08-20T03:08:07;13.60;99.90
54260;DHT22;40172;53.022;7.012;2023-08-20T03:10:33;13.60;99.90
54260;DHT22;40172;53.022;7.012;2023-08-20T03:13:01;13.70;99.90
54260;DHT22;40172;53.022;7.012;2023-08-20T03:15:27;13.80;99.90
54260;DHT22;40172;53.022;7.012;2023-08-20T03:17:53;13.90;99.90
54260;DHT22;40172;53.022;7.012;2023-08-20T03:20:18;13.90;99.90
54260;DHT22;40172;53.022;7.012;2023-08-20T03:22:44;13.90;99.90
54260;DHT22;40172;53.022;7.012;2023-08-20T03:25:09;13.80;99.90
54260;DHT22;40172;53.022;7.012;2023-08-20T03:27:35;13.80;99.90
54260;DHT22;40172;53.022;7.012;2023-08-20T03:30:01;13.60;99.90
54260;DHT22;40172;53.022;7.012;2023-08-20T03:32:27;13.50;99.90
54260;DHT22;40172;53.022;7.012;2023-08-20T03:34:52;13.50;99.90
54260;DHT22;40172;53.022;7.012;2023-08-20T03:37:19;13.50;99.90
54260;DHT22;40172;53.022;7.012;2023-08-20T03:39:45;13.50;99.90
54260;DHT22;40172;53.022;7.012;2023-08-20T03:42:10;13.50;99.90
54260;DHT22;40172;53.022;7.012;2023-08-20T03:44:36;13.40;99.90
54260;DHT22;40172;53.022;7.012;2023-08-20T03:47:01;13.40;99.90
54260;DHT22;40172;53.022;7.012;2023-08-20T03:49:27;13.50;99.90
54260;DHT22;40172;53.022;7.012;2023-08-20T03:51:53;13.40;99.90
54260;DHT22;40172;53.022;7.012;2023-08-20T03:54:18;13.50;99.90
54260;DHT22;40172;53.022;7.012;2023-08-20T03:56:44;13.50;99.90
54260;DHT22;40172;53.022;7.012;2023-08-20T03:59:09;13.50;99.90
54260;DHT22;40172;53.022;7.012;2023-08-20T04:01:35;13.50;99.90
54260;DHT22;40172;53.022;7.012;2023-08-20T04:04:03;13.50;99.90
54260;DHT22;40172;53.022;7.012;2023-08-20T04:06:28;13.60;99.90
54260;DHT22;40172;53.022;7.012;2023-08-20T04:08:54;13.70;99.90
54260;DHT22;40172;53.022;7.012;2023-08-20T04:11:20;13.60;99.90
54260;DHT22;40172;53.022;7.012;2023-08-20T04:13:48;13.70;99.90
54260;DHT22;40172;53.022;7.012;2023-08-20T04:16:14;13.70;99.90
54260;DHT22;40172;53.022;7.012;2023-08-20T04:18:40;14.20;99.90
54260;DHT22;40172;53.022;7.012;2023-08-20T04:21:06;13.70;99.90
54260;DHT22;40172;53.022;7.012;2023-08-20T04:23:33;13.70;99.90
54260;DHT22;40172;53.022;7.012;2023-08-20T04:25:59;13.70;99.90
54260;DHT22;40172;53.022;7.012;2023-08-20T04:28:24;13.70;99.90
54260;DHT22;40172;53.022;7.012;2023-08-20T04:30:52;13.60;99.90
54260;DHT22;40172;53.022;7.012;2023-08-20T04:33:19;13.70;99.90
54260;DHT22;40172;53.022;7.012;2023-08-20T04:35:45;13.70;99.90
54260;DHT22;40172;53.022;7.012;2023-08-20T04:38:11;13.70;99.90
54260;DHT22;40172;53.022;7.012;2023-08-20T04:40:36;13.70;99.90
54260;DHT22;40172;53.022;7.012;2023-08-20T04:43:02;13.70;99.90
54260;DHT22;40172;53.022;7.012;2023-08-20T04:45:27;13.80;99.90
54260;DHT22;40172;53.022;7.012;2023-08-20T04:47:53;13.80;99.90
54260;DHT22;40172;53.022;7.012;2023-08-20T04:50:19;13.80;99.90
54260;DHT22;40172;53.022;7.012;2023-08-20T04:52:44;13.90;99.90
54260;DHT22;40172;53.022;7.012;2023-08-20T04:55:10;13.80;99.90
54260;DHT22;40172;53.022;7.012;2023-08-20T04:57:35;13.90;99.90
54260;DHT22;40172;53.022;7.012;2023-08-20T05:00:01;13.90;99.90
54260;DHT22;40172;53.022;7.012;2023-08-20T05:02:27;13.90;99.90
54260;DHT22;40172;53.022;7.012;2023-08-20T05:04:52;14.10;99.90
54260;DHT22;40172;53.022;7.012;2023-08-20T05:07:18;14.10;99.90
54260;DHT22;40172;53.022;7.012;2023-08-20T05:09:43;14.20;99.90
54260;DHT22;40172;53.022;7.012;2023-08-20T05:12:09;14.30;99.90
54260;DHT22;40172;53.022;7.012;2023-08-20T05:14:35;14.30;99.90
54260;DHT22;40172;53.022;7.012;2023-08-20T05:17:00;14.30;99.90
54260;DHT22;40172;53.022;7.012;2023-08-20T05:19:26;14.30;99.90
54260;DHT22;40172;53.022;7.012;2023-08-20T05:21:52;14.40;99.90
54260;DHT22;40172;53.022;7.012;2023-08-20T05:24:24;14.60;99.90
54260;DHT22;40172;53.022;7.012;2023-08-20T05:29:32;14.80;99.90
54260;DHT22;40172;53.022;7.012;2023-08-20T05:31:57;14.90;99.90
54260;DHT22;40172;53.022;7.012;2023-08-20T05:34:23;15.00;99.90
54260;DHT22;40172;53.022;7.012;2023-08-20T05:36:48;15.10;99.90
54260;DHT22;40172;53.022;7.012;2023-08-20T05:39:14;15.20;99.90
54260;DHT22;40172;53.022;7.012;2023-08-20T05:41:40;15.30;99.90
54260;DHT22;40172;53.022;7.012;2023-08-20T05:44:05;15.40;99.90
54260;DHT22;40172;53.022;7.012;2023-08-20T05:46:31;15.50;99.90
54260;DHT22;40172;53.022;7.012;2023-08-20T05:48:56;15.60;99.90
54260;DHT22;40172;53.022;7.012;2023-08-20T05:51:22;15.70;99.90
54260;DHT22;40172;53.022;7.012;2023-08-20T05:53:47;15.90;99.90
54260;DHT22;40172;53.022;7.012;2023-08-20T05:56:13;16.10;99.90
54260;DHT22;40172;53.022;7.012;2023-08-20T05:58:39;16.10;99.90
54260;DHT22;40172;53.022;7.012;2023-08-20T06:01:04;16.30;99.90
54260;DHT22;40172;53.022;7.012;2023-08-20T06:03:30;16.40;99.90
54260;DHT22;40172;53.022;7.012;2023-08-20T06:05:57;16.50;99.90
54260;DHT22;40172;53.022;7.012;2023-08-20T06:08:23;16.60;99.90
54260;DHT22;40172;53.022;7.012;2023-08-20T06:10:49;16.70;99.90
54260;DHT22;40172;53.022;7.012;2023-08-20T06:13:15;16.80;99.90
54260;DHT22;40172;53.022;7.012;2023-08-20T06:15:40;17.00;99.90
54260;DHT22;40172;53.022;7.012;2023-08-20T06:18:06;17.10;99.90
54260;DHT22;40172;53.022;7.012;2023-08-20T06:20:32;17.10;99.90
54260;DHT22;40172;53.022;7.012;2023-08-20T06:22:58;17.40;99.90
54260;DHT22;40172;53.022;7.012;2023-08-20T06:25:23;17.40;99.90
54260;DHT22;40172;53.022;7.012;2023-08-20T06:27:49;17.40;99.90
54260;DHT22;40172;53.022;7.012;2023-08-20T06:30:14;17.50;99.90
54260;DHT22;40172;53.022;7.012;2023-08-20T06:32:40;17.60;99.90
54260;DHT22;40172;53.022;7.012;2023-08-20T06:35:06;17.60;99.90
54260;DHT22;40172;53.022;7.012;2023-08-20T06:37:34;17.80;99.90
54260;DHT22;40172;53.022;7.012;2023-08-20T06:39:59;17.80;99.90
54260;DHT22;40172;53.022;7.012;2023-08-20T06:42:25;17.90;99.90
54260;DHT22;40172;53.022;7.012;2023-08-20T06:44:51;18.00;99.90
54260;DHT22;40172;53.022;7.012;2023-08-20T06:47:16;18.00;99.90
54260;DHT22;40172;53.022;7.012;2023-08-20T06:49:42;18.10;99.90
54260;DHT22;40172;53.022;7.012;2023-08-20T06:52:07;18.20;99.90
54260;DHT22;40172;53.022;7.012;2023-08-20T06:54:33;18.30;99.90
54260;DHT22;40172;53.022;7.012;2023-08-20T06:56:58;18.40;99.90
54260;DHT22;40172;53.022;7.012;2023-08-20T06:59:24;18.50;99.90
54260;DHT22;40172;53.022;7.012;2023-08-20T07:01:49;18.60;99.90
54260;DHT22;40172;53.022;7.012;2023-08-20T07:04:15;18.80;99.90
54260;DHT22;40172;53.022;7.012;2023-08-20T07:06:41;18.90;99.90
54260;DHT22;40172;53.022;7.012;2023-08-20T07:09:07;19.10;99.90
54260;DHT22;40172;53.022;7.012;2023-08-20T07:11:32;19.20;99.90
54260;DHT22;40172;53.022;7.012;2023-08-20T07:13:58;19.30;99.90
54260;DHT22;40172;53.022;7.012;2023-08-20T07:16:23;19.40;99.90
54260;DHT22;40172;53.022;7.012;2023-08-20T07:18:49;19.50;99.90
54260;DHT22;40172;53.022;7.012;2023-08-20T07:21:15;19.70;99.90
54260;DHT22;40172;53.022;7.012;2023-08-20T07:23:40;19.80;99.90
54260;DHT22;40172;53.022;7.012;2023-08-20T07:26:08;20.60;99.90
54260;DHT22;40172;53.022;7.012;2023-08-20T07:28:34;20.20;99.90
54260;DHT22;40172;53.022;7.012;2023-08-20T07:31:19;20.30;99.90
54260;DHT22;40172;53.022;7.012;2023-08-20T07:33:52;20.60;99.90
54260;DHT22;40172;53.022;7.012;2023-08-20T07:36:19;20.60;99.90
54260;DHT22;40172;53.022;7.012;2023-08-20T07:38:44;20.60;99.90
54260;DHT22;40172;53.022;7.012;2023-08-20T07:41:11;20.70;99.90
54260;DHT22;40172;53.022;7.012;2023-08-20T07:43:40;20.70;99.90
54260;DHT22;40172;53.022;7.012;2023-08-20T07:46:07;20.80;99.90
54260;DHT22;40172;53.022;7.012;2023-08-20T07:48:34;20.90;99.90
54260;DHT22;40172;53.022;7.012;2023-08-20T07:51:00;21.10;99.90
54260;DHT22;40172;53.022;7.012;2023-08-20T07:53:25;21.10;99.90
54260;DHT22;40172;53.022;7.012;2023-08-20T07:55:51;21.10;99.90
54260;DHT22;40172;53.022;7.012;2023-08-20T07:58:17;21.30;99.90
54260;DHT22;40172;53.022;7.012;2023-08-20T08:00:43;21.40;99.90
54260;DHT22;40172;53.022;7.012;2023-08-20T08:03:09;21.50;99.90
54260;DHT22;40172;53.022;7.012;2023-08-20T08:05:35;21.60;99.90
54260;DHT22;40172;53.022;7.012;2023-08-20T08:08:01;21.70;99.90
54260;DHT22;40172;53.022;7.012;2023-08-20T08:10:28;21.80;99.90
54260;DHT22;40172;53.022;7.012;2023-08-20T08:12:53;21.90;99.90
54260;DHT22;40172;53.022;7.012;2023-08-20T08:15:19;21.90;99.90
54260;DHT22;40172;53.022;7.012;2023-08-20T08:17:44;21.90;99.90
54260;DHT22;40172;53.022;7.012;2023-08-20T08:20:10;21.90;99.90
54260;DHT22;40172;53.022;7.012;2023-08-20T08:22:36;22.00;99.90
54260;DHT22;40172;53.022;7.012;2023-08-20T08:25:01;22.10;99.90
54260;DHT22;40172;53.022;7.012;2023-08-20T08:27:27;22.20;99.90
54260;DHT22;40172;53.022;7.012;2023-08-20T08:29:52;22.20;99.90
54260;DHT22;40172;53.022;7.012;2023-08-20T08:32:18;22.10;99.90
54260;DHT22;40172;53.022;7.012;2023-08-20T08:34:44;22.10;99.90
54260;DHT22;40172;53.022;7.012;2023-08-20T08:37:09;22.20;99.90
54260;DHT22;40172;53.022;7.012;2023-08-20T08:39:35;22.20;99.90
54260;DHT22;40172;53.022;7.012;2023-08-20T08:42:04;22.30;99.90
54260;DHT22;40172;53.022;7.012;2023-08-20T08:44:34;22.40;99.90
54260;DHT22;40172;53.022;7.012;2023-08-20T08:47:02;22.40;99.90
54260;DHT22;40172;53.022;7.012;2023-08-20T08:49:27;22.40;99.90
54260;DHT22;40172;53.022;7.012;2023-08-20T08:51:57;22.50;99.90
54260;DHT22;40172;53.022;7.012;2023-08-20T08:54:23;22.50;99.90
54260;DHT22;40172;53.022;7.012;2023-08-20T08:56:50;22.70;99.90
54260;DHT22;40172;53.022;7.012;2023-08-20T08:59:15;22.80;99.90
54260;DHT22;40172;53.022;7.012;2023-08-20T09:01:41;23.00;99.90
54260;DHT22;40172;53.022;7.012;2023-08-20T09:04:07;23.00;99.90
54260;DHT22;40172;53.022;7.012;2023-08-20T09:06:51;23.00;99.90
54260;DHT22;40172;53.022;7.012;2023-08-20T09:09:18;23.10;99.90
54260;DHT22;40172;53.022;7.012;2023-08-20T09:11:44;23.20;99.90
54260;DHT22;40172;53.022;7.012;2023-08-20T09:14:24;23.80;99.90
54260;DHT22;40172;53.022;7.012;2023-08-20T09:16:58;23.30;99.90
54260;DHT22;40172;53.022;7.012;2023-08-20T09:19:24;23.50;99.90
54260;DHT22;40172;53.022;7.012;2023-08-20T09:21:50;23.50;99.90
54260;DHT22;40172;53.022;7.012;2023-08-20T09:24:26;23.60;99.90
54260;DHT22;40172;53.022;7.012;2023-08-20T09:26:57;23.70;99.90
54260;DHT22;40172;53.022;7.012;2023-08-20T09:29:26;23.90;99.90
54260;DHT22;40172;53.022;7.012;2023-08-20T09:32:00;23.80;99.90
54260;DHT22;40172;53.022;7.012;2023-08-20T09:34:36;23.80;99.90
54260;DHT22;40172;53.022;7.012;2023-08-20T09:37:02;23.80;99.90
54260;DHT22;40172;53.022;7.012;2023-08-20T09:39:27;23.80;99.90
54260;DHT22;40172;53.022;7.012;2023-08-20T09:41:53;23.90;99.90
54260;DHT22;40172;53.022;7.012;2023-08-20T09:44:20;24.00;99.90
54260;DHT22;40172;53.022;7.012;2023-08-20T09:46:47;24.00;99.90
54260;DHT22;40172;53.022;7.012;2023-08-20T09:49:15;24.10;99.90
54260;DHT22;40172;53.022;7.012;2023-08-20T09:51:43;24.10;99.90
54260;DHT22;40172;53.022;7.012;2023-08-20T09:54:21;24.10;99.90
54260;DHT22;40172;53.022;7.012;2023-08-20T09:56:53;24.20;99.90
54260;DHT22;40172;53.022;7.012;2023-08-20T09:59:19;24.20;99.90
54260;DHT22;40172;53.022;7.012;2023-08-20T10:01:46;24.20;99.90
54260;DHT22;40172;53.022;7.012;2023-08-20T10:04:14;24.20;99.90
54260;DHT22;40172;53.022;7.012;2023-08-20T10:06:41;24.30;99.90
54260;DHT22;40172;53.022;7.012;2023-08-20T10:09:08;25.10;99.90
54260;DHT22;40172;53.022;7.012;2023-08-20T10:11:34;24.40;99.90
54260;DHT22;40172;53.022;7.012;2023-08-20T10:13:59;24.40;99.90
54260;DHT22;40172;53.022;7.012;2023-08-20T10:16:27;24.40;99.90
54260;DHT22;40172;53.022;7.012;2023-08-20T10:18:53;24.60;99.90
54260;DHT22;40172;53.022;7.012;2023-08-20T10:21:23;24.70;99.90
54260;DHT22;40172;53.022;7.012;2023-08-20T10:23:49;24.70;99.90
54260;DHT22;40172;53.022;7.012;2023-08-20T10:26:15;24.70;99.90
54260;DHT22;40172;53.022;7.012;2023-08-20T10:28:42;24.60;99.90
54260;DHT22;40172;53.022;7.012;2023-08-20T10:31:12;24.50;99.90
54260;DHT22;40172;53.022;7.012;2023-08-20T10:33:47;24.50;99.90
54260;DHT22;40172;53.022;7.012;2023-08-20T10:38:41;24.70;99.90
54260;DHT22;40172;53.022;7.012;2023-08-20T10:41:07;24.70;99.90
54260;DHT22;40172;53.022;7.012;2023-08-20T10:43:38;24.70;99.90
54260;DHT22;40172;53.022;7.012;2023-08-20T10:48:39;24.70;99.90
54260;DHT22;40172;53.022;7.012;2023-08-20T10:51:37;24.90;99.90
54260;DHT22;40172;53.022;7.012;2023-08-20T10:54:12;24.70;99.90
54260;DHT22;40172;53.022;7.012;2023-08-20T10:56:40;24.50;99.90
54260;DHT22;40172;53.022;7.012;2023-08-20T10:59:25;25.00;99.90
54260;DHT22;40172;53.022;7.012;2023-08-20T11:01:52;24.20;99.90
54260;DHT22;40172;53.022;7.012;2023-08-20T11:04:20;24.20;99.90
54260;DHT22;40172;53.022;7.012;2023-08-20T11:06:47;24.10;99.90
54260;DHT22;40172;53.022;7.012;2023-08-20T11:09:18;24.10;99.90
54260;DHT22;40172;53.022;7.012;2023-08-20T11:11:44;24.10;99.90
54260;DHT22;40172;53.022;7.012;2023-08-20T11:14:14;24.20;99.90
54260;DHT22;40172;53.022;7.012;2023-08-20T11:16:41;24.20;99.90
54260;DHT22;40172;53.022;7.012;2023-08-20T11:19:08;24.20;99.90
54260;DHT22;40172;53.022;7.012;2023-08-20T11:21:41;24.20;99.90
54260;DHT22;40172;53.022;7.012;2023-08-20T11:24:08;24.30;99.90
54260;DHT22;40172;53.022;7.012;2023-08-20T11:26:35;24.30;99.90
54260;DHT22;40172;53.022;7.012;2023-08-20T11:29:04;25.20;99.90
54260;DHT22;40172;53.022;7.012;2023-08-20T11:31:30;24.30;99.90
54260;DHT22;40172;53.022;7.012;2023-08-20T11:33:57;24.30;99.90
54260;DHT22;40172;53.022;7.012;2023-08-20T11:36:23;24.30;99.90
54260;DHT22;40172;53.022;7.012;2023-08-20T11:38:53;24.40;99.90
54260;DHT22;40172;53.022;7.012;2023-08-20T11:41:22;24.40;99.90
54260;DHT22;40172;53.022;7.012;2023-08-20T11:43:48;25.60;99.90
54260;DHT22;40172;53.022;7.012;2023-08-20T11:46:15;24.60;99.90
54260;DHT22;40172;53.022;7.012;2023-08-20T11:49:07;24.70;99.90
54260;DHT22;40172;53.022;7.012;2023-08-20T11:51:43;24.70;99.90
54260;DHT22;40172;53.022;7.012;2023-08-20T11:54:14;24.80;99.90
54260;DHT22;40172;53.022;7.012;2023-08-20T11:59:11;25.60;99.90
54260;DHT22;40172;53.022;7.012;2023-08-20T12:01:37;24.90;99.90
54260;DHT22;40172;53.022;7.012;2023-08-20T12:04:04;25.00;99.90
54260;DHT22;40172;53.022;7.012;2023-08-20T12:06:31;25.00;99.90
54260;DHT22;40172;53.022;7.012;2023-08-20T12:08:59;25.00;99.90
54260;DHT22;40172;53.022;7.012;2023-08-20T12:11:26;25.10;99.90
54260;DHT22;40172;53.022;7.012;2023-08-20T12:13:52;25.10;99.90
54260;DHT22;40172;53.022;7.012;2023-08-20T12:16:18;25.00;99.90
54260;DHT22;40172;53.022;7.012;2023-08-20T12:18:46;25.00;99.90
54260;DHT22;40172;53.022;7.012;2023-08-20T12:21:12;25.10;99.90
54260;DHT22;40172;53.022;7.012;2023-08-20T12:23:37;25.10;99.90
54260;DHT22;40172;53.022;7.012;2023-08-20T12:26:03;25.60;99.90
54260;DHT22;40172;53.022;7.012;2023-08-20T12:28:29;25.10;99.90
54260;DHT22;40172;53.022;7.012;2023-08-20T12:30:54;25.30;99.90
54260;DHT22;40172;53.022;7.012;2023-08-20T12:33:20;25.30;99.90
54260;DHT22;40172;53.022;7.012;2023-08-20T12:35:46;25.20;99.90
54260;DHT22;40172;53.022;7.012;2023-08-20T12:38:12;25.20;99.90
54260;DHT22;40172;53.022;7.012;2023-08-20T12:40:38;25.00;99.90
54260;DHT22;40172;53.022;7.012;2023-08-20T12:43:03;24.90;99.90
54260;DHT22;40172;53.022;7.012;2023-08-20T12:45:29;24.90;99.90
54260;DHT22;40172;53.022;7.012;2023-08-20T12:47:55;24.90;99.90
54260;DHT22;40172;53.022;7.012;2023-08-20T12:50:21;24.80;99.90
54260;DHT22;40172;53.022;7.012;2023-08-20T12:52:46;24.70;99.90
54260;DHT22;40172;53.022;7.012;2023-08-20T12:55:14;24.70;99.90
54260;DHT22;40172;53.022;7.012;2023-08-20T12:57:52;24.80;99.90
54260;DHT22;40172;53.022;7.012;2023-08-20T13:00:19;24.80;99.90
54260;DHT22;40172;53.022;7.012;2023-08-20T13:02:45;24.80;99.90
54260;DHT22;40172;53.022;7.012;2023-08-20T13:05:11;24.70;99.90
54260;DHT22;40172;53.022;7.012;2023-08-20T13:07:37;24.70;99.90
54260;DHT22;40172;53.022;7.012;2023-08-20T13:10:03;24.60;99.90
54260;DHT22;40172;53.022;7.012;2023-08-20T13:12:29;24.80;99.90
54260;DHT22;40172;53.022;7.012;2023-08-20T13:14:57;24.80;99.90
54260;DHT22;40172;53.022;7.012;2023-08-20T13:17:23;24.70;99.90
54260;DHT22;40172;53.022;7.012;2023-08-20T13:19:49;24.50;99.90
54260;DHT22;40172;53.022;7.012;2023-08-20T13:22:15;24.50;99.90
54260;DHT22;40172;53.022;7.012;2023-08-20T13:24:40;24.60;99.90
54260;DHT22;40172;53.022;7.012;2023-08-20T13:27:06;24.60;99.90
54260;DHT22;40172;53.022;7.012;2023-08-20T13:29:31;24.50;99.90
54260;DHT22;40172;53.022;7.012;2023-08-20T13:31:57;24.50;99.90
54260;DHT22;40172;53.022;7.012;2023-08-20T13:34:22;24.60;99.90
54260;DHT22;40172;53.022;7.012;2023-08-20T13:36:48;24.70;99.90
54260;DHT22;40172;53.022;7.012;2023-08-20T13:39:14;24.70;99.90
54260;DHT22;40172;53.022;7.012;2023-08-20T13:41:40;24.70;99.90
54260;DHT22;40172;53.022;7.012;2023-08-20T13:44:07;24.60;99.90
54260;DHT22;40172;53.022;7.012;2023-08-20T13:46:34;24.50;99.90
54260;DHT22;40172;53.022;7.012;2023-08-20T13:49:00;24.40;99.90
54260;DHT22;40172;53.022;7.012;2023-08-20T13:51:25;24.50;99.90
54260;DHT22;40172;53.022;7.012;2023-08-20T13:53:51;24.60;99.90
54260;DHT22;40172;53.022;7.012;2023-08-20T13:56:17;24.70;99.90
54260;DHT22;40172;53.022;7.012;2023-08-20T13:58:42;24.70;99.90
54260;DHT22;40172;53.022;7.012;2023-08-20T14:01:08;24.90;99.90
54260;DHT22;40172;53.022;7.012;2023-08-20T14:03:33;25.10;99.90
54260;DHT22;40172;53.022;7.012;2023-08-20T14:05:59;25.20;99.90
54260;DHT22;40172;53.022;7.012;2023-08-20T14:08:25;25.10;99.90
54260;DHT22;40172;53.022;7.012;2023-08-20T14:10:50;25.00;99.90
54260;DHT22;40172;53.022;7.012;2023-08-20T14:13:16;25.00;99.90
54260;DHT22;40172;53.022;7.012;2023-08-20T14:15:41;25.00;99.90
54260;DHT22;40172;53.022;7.012;2023-08-20T14:18:07;25.10;99.90
54260;DHT22;40172;53.022;7.012;2023-08-20T14:20:33;25.50;99.90
54260;DHT22;40172;53.022;7.012;2023-08-20T14:22:58;25.10;99.90
54260;DHT22;40172;53.022;7.012;2023-08-20T14:25:24;25.00;99.90
54260;DHT22;40172;53.022;7.012;2023-08-20T14:27:50;24.90;99.80
54260;DHT22;40172;53.022;7.012;2023-08-20T14:30:16;24.80;99.90
54260;DHT22;40172;53.022;7.012;2023-08-20T14:32:41;24.70;99.90
54260;DHT22;40172;53.022;7.012;2023-08-20T14:35:08;24.60;99.90
54260;DHT22;40172;53.022;7.012;2023-08-20T14:37:34;24.70;99.90
54260;DHT22;40172;53.022;7.012;2023-08-20T14:39:59;24.80;99.90
54260;DHT22;40172;53.022;7.012;2023-08-20T14:42:25;25.00;99.50
54260;DHT22;40172;53.022;7.012;2023-08-20T14:44:50;25.30;99.90
54260;DHT22;40172;53.022;7.012;2023-08-20T14:47:16;25.50;99.10
54260;DHT22;40172;53.022;7.012;2023-08-20T14:49:42;25.60;99.20
54260;DHT22;40172;53.022;7.012;2023-08-20T14:52:07;25.70;99.10
54260;DHT22;40172;53.022;7.012;2023-08-20T14:54:33;25.70;99.40
54260;DHT22;40172;53.022;7.012;2023-08-20T14:56:58;25.70;99.80
54260;DHT22;40172;53.022;7.012;2023-08-20T14:59:24;25.60;98.40
54260;DHT22;40172;53.022;7.012;2023-08-20T15:01:51;25.60;99.30
54260;DHT22;40172;53.022;7.012;2023-08-20T15:04:17;25.70;99.50
54260;DHT22;40172;53.022;7.012;2023-08-20T15:06:42;25.70;99.60
54260;DHT22;40172;53.022;7.012;2023-08-20T15:09:08;25.70;99.90
54260;DHT22;40172;53.022;7.012;2023-08-20T15:11:43;25.60;99.90
54260;DHT22;40172;53.022;7.012;2023-08-20T15:14:09;25.30;99.90
54260;DHT22;40172;53.022;7.012;2023-08-20T15:16:35;25.10;99.90
54260;DHT22;40172;53.022;7.012;2023-08-20T15:19:01;25.00;99.90
54260;DHT22;40172;53.022;7.012;2023-08-20T15:21:26;25.10;99.90
54260;DHT22;40172;53.022;7.012;2023-08-20T15:23:52;25.20;99.90
54260;DHT22;40172;53.022;7.012;2023-08-20T15:26:18;25.30;99.90
54260;DHT22;40172;53.022;7.012;2023-08-20T15:28:43;25.40;99.90
54260;DHT22;40172;53.022;7.012;2023-08-20T15:31:09;25.60;99.90
54260;DHT22;40172;53.022;7.012;2023-08-20T15:33:35;25.40;99.90
54260;DHT22;40172;53.022;7.012;2023-08-20T15:36:00;25.40;99.90
54260;DHT22;40172;53.022;7.012;2023-08-20T15:38:26;25.20;99.90
54260;DHT22;40172;53.022;7.012;2023-08-20T15:40:54;25.10;99.70